Terminal Aerodrome Forecast
Issued by NWS Shreveport, LA

Home | Current Version | Previous Version | Text Only | Print | Product List | Glossary On
Versions: 1 2 3 4 5 6 7 8 9 10 11 12 13
000
FTUS44 KSHV 290540
TAFMLU
TAF
KMLU 290540Z 2906/3006 VRB03KT P6SM SCT050 BKN150
      TEMPO 2912/2915 5SM BR BKN030
     FM291500 06007KT P6SM FEW050 BKN080
      TEMPO 2919/2921 -TSRA BKN050CB BKN120
     FM292100 06008KT P6SM VCTS BKN050CB BKN150
     FM300000 04004KT P6SM OVC100=

USA.gov is the U.S. government's official web portal to all federal, state and local government web resources and services.